Tampa, Florida
Traffic Map
Current Weather Conditions
Tampa, Florida
Few Clouds
Few Clouds
90°
Feels Like: 92°
Wind Chill: 90° Ceiling: Unl
Heat Index: 92° Visibility: 10mi
Dew Point: 66° Wind: 15mph
Humidity: 45% Direction: 350° (N)
Pressure: 30.05in Gusts: 0mph
Raw Report DataKTPA 222153Z 35013KT 10SM FEW055TCU FEW270 32/19 A3005 RMK AO2 SLP176 CB DSNT SE-S TCU E-S T03220189
Traffic Incident Summary
Active as of:
Severity:
Category:
InformationThere was an issue retrieving the traffic information for this location. Please try a different location or try again shortly.
Advertisements
Track Severe Weather on mobile